createdAt,value
2022-09-21T00:12:47.216Z,116.20
2022-09-21T00:37:51.249Z,114.77
2022-09-21T01:03:01.419Z,116.83
2022-09-21T01:28:09.499Z,115.17
2022-09-21T01:53:17.131Z,115.37
2022-09-21T02:18:26.979Z,118.60
2022-09-21T02:43:32.964Z,113.73
2022-09-21T03:08:36.966Z,113.47
2022-09-21T03:33:41.029Z,115.50
2022-09-21T03:58:45.436Z,113.83
2022-09-21T04:23:49.783Z,117.23
2022-09-21T04:48:53.795Z,117.23
2022-09-21T05:13:58.115Z,121.37
2022-09-21T05:39:02.499Z,123.63
2022-09-21T06:04:09.296Z,128.07
2022-09-21T06:29:13.901Z,125.90
2022-09-21T06:54:18.480Z,130.93
2022-09-21T07:19:22.764Z,126.03
2022-09-21T07:44:27.172Z,123.85
2022-09-21T08:09:31.177Z,125.82
2022-09-21T08:34:35.161Z,130.82
2022-09-21T08:59:40.390Z,130.73
2022-09-21T09:24:48.276Z,129.43
2022-09-21T09:49:57.640Z,131.07
2022-09-21T10:15:01.904Z,127.03
2022-09-21T10:40:23.385Z,124.32
2022-09-21T11:05:28.907Z,128.13
2022-09-21T11:30:53.811Z,125.15
2022-09-21T11:56:03.611Z,126.80
2022-09-21T12:21:12.424Z,131.48
2022-09-21T12:46:19.537Z,131.02
2022-09-21T13:11:24.287Z,127.07
2022-09-21T13:36:32.394Z,125.43
2022-09-21T14:01:47.164Z,123.28
2022-09-21T14:26:55.273Z,131.95
2022-09-21T14:52:27.627Z,133.82
2022-09-21T15:17:28.713Z,125.97
2022-09-21T15:42:33.563Z,134.77
2022-09-21T16:07:38.744Z,127.57
2022-09-21T16:32:43.206Z,130.15
2022-09-21T16:57:48.354Z,125.82
2022-09-21T17:22:52.466Z,123.22
2022-09-21T17:47:57.195Z,124.72
2022-09-21T18:13:14.759Z,130.88
2022-09-21T18:38:22.302Z,139.25
2022-09-21T19:03:27.166Z,120.10
2022-09-21T19:28:44.595Z,121.70
2022-09-21T19:54:10.683Z,126.35
2022-09-21T20:19:30.864Z,118.33
2022-09-21T20:44:34.989Z,118.47
2022-09-21T21:09:39.353Z,117.85
2022-09-21T21:34:43.697Z,118.30
2022-09-21T21:59:47.729Z,121.07
2022-09-21T22:24:51.897Z,118.83
2022-09-21T22:49:57.690Z,120.22
2022-09-21T23:15:01.857Z,119.33
2022-09-21T23:40:06.370Z,118.23
